METAR Data
IDs: Format: Raw Decoded Include TAF

Data at: 0656 UTC 03 Aug 2021

KSDM 030653Z AUTO 00000KT 10SM CLR 21/15 A2998 RMK AO2 SLP146 T02060150
KSDM 030553Z AUTO 00000KT 10SM CLR 21/15 A2998 RMK AO2 SLP147 T02060150 10294 20200 50006
KSDM 030453Z AUTO 00000KT 10SM CLR 21/15 A2999 RMK AO2 SLP148 T02110150
KSDM 030353Z AUTO 00000KT 10SM CLR 22/15 A2998 RMK AO2 SLP147 T02220150
KSDM 030253Z 28004KT 10SM CLR 23/15 A2996 RMK AO2 SLP141 T02330150 53005
KSDM 030153Z VRB04KT 10SM CLR 27/14 A2995 RMK AO2 SLP138 T02670144
KSDM 030053Z 30007KT 10SM CLR 28/12 A2995 RMK AO2 SLP137 T02780122
KSDM 022353Z 29008KT 10SM CLR 29/13 A2995 RMK AO2 SLP136 T02890128 10322 20278 56012
KSDM 022253Z 28010KT 10SM CLR 29/13 A2996 RMK AO2 SLP138 T02940128
KSDM 022153Z 27009KT 10SM CLR 32/13 A2997 RMK AO2 SLP142 T03170128
KSDM 022053Z 29009G14KT 260V320 10SM CLR 32/12 A2998 RMK AO2 SLP147 T03170117 56014
KSDM 021953Z 28009KT 10SM CLR 32/11 A3000 RMK AO2 SLP151 T03170111
KSDM 021853Z 31005KT 10SM CLR 31/14 A3001 RMK AO2 SLP155 T03060144
KSDM 021753Z 28006KT 10SM CLR 28/14 A3003 RMK AO2 SLP162 T02780144 10278 20167 58009
KSDM 021653Z VRB05KT 10SM CLR 27/13 A3004 RMK AO2 SLP165 T02670133
KSDM 021553Z 00000KT 10SM CLR 24/13 A3005 RMK AO2 SLP172 T02440133
KSDM 021453Z 00000KT 10SM CLR 21/13 A3005 RMK AO2 SLP172 T02110133 51010
KSDM 021353Z AUTO 00000KT 8SM CLR 18/13 A3005 RMK AO2 SLP170 T01830128
KSDM 021253Z AUTO 00000KT 10SM CLR 18/13 A3004 RMK AO2 SLP166 T01780128
KSDM 021153Z AUTO 00000KT 10SM CLR 18/13 A3002 RMK AO2 SLP161 T01830128 10217 20178 55000
KSDM 021053Z AUTO 00000KT 10SM CLR 18/12 A3002 RMK AO2 SLP160 T01780117
KSDM 020953Z AUTO 00000KT 10SM CLR 19/12 A3001 RMK AO2 SLP157 T01940122
KSDM 020853Z AUTO 00000KT 10SM CLR 20/12 A3002 RMK AO2 SLP161 T02000122 58004
KSDM 020753Z AUTO 19003KT 10SM CLR 20/12 A3003 RMK AO2 SLP164 T02000117 403060161
KSDM 020653Z AUTO 00000KT 10SM CLR 21/11 A3005 RMK AO2 SLP168 T02110111
KSDM 020553Z AUTO 00000KT 10SM CLR 21/11 A3004 RMK AO2 SLP165 T02110111 10289 20211 53012
KSDM 020453Z AUTO 27003KT 10SM CLR 22/14 A3003 RMK AO2 SLP163 T02170144
KSDM 020353Z AUTO 26003KT 10SM CLR 21/16 A3001 RMK AO2 SLP156 T02110156
KSDM 020253Z 00000KT 10SM CLR 22/16 A3000 RMK AO2 SLP155 T02220156 53003
KSDM 020153Z 28008KT 10SM CLR 24/15 A2999 RMK AO2 SLP151 T02390150
KSDM 020053Z 27009KT 10SM CLR 28/13 A2998 RMK AO2 SLP148 T02780133
KSDM 012353Z 28008KT 10SM CLR 28/13 A2999 RMK AO2 SLP152 T02830133 10306 20267 58008
KSDM 012253Z 29009G14KT 10SM CLR 29/12 A3000 RMK AO2 SLP155 T02890122
KSDM 012153Z 28009KT 10SM CLR 29/13 A3002 RMK AO2 SLP159 T02890133
KSDM 012053Z 28007KT 10SM CLR 28/14 A3002 RMK AO2 SLP160 T02830144 56009
KSDM 011953Z 27011G16KT 10SM CLR 27/14 A3003 RMK AO2 SLP163 T02720139